Terminal Aerodrome Forecast
Issued by NWS Twin Cities, MN

Home | Current Version | Previous Version | Graphics & Text | Print | Product List | Glossary On
Versions: 1 2 3 4 5 6 7 8 9 10 11 12 13 14
000
FTUS43 KMPX 202320
TAFSTC
TAF
KSTC 202320Z 2100/2124 33009KT P6SM FEW050
     FM210100 33004KT P6SM FEW250
     FM211600 16009KT P6SM VCSH SCT050 BKN110=

USA.gov is the U.S. government's official web portal to all federal, state and local government web resources and services.